sensor_id;sensor_type;location;lat;lon;timestamp;P1;durP1;ratioP1;P2;durP2;ratioP2
4317;SDS011;2172;53.576;9.934;2023-04-08T00:02:16;26.13;;;15.60;;
4317;SDS011;2172;53.576;9.934;2023-04-08T00:04:44;26.87;;;15.10;;
4317;SDS011;2172;53.576;9.934;2023-04-08T00:07:12;23.30;;;13.60;;
4317;SDS011;2172;53.576;9.934;2023-04-08T00:09:59;23.70;;;15.30;;
4317;SDS011;2172;53.576;9.934;2023-04-08T00:12:27;23.93;;;13.93;;
4317;SDS011;2172;53.576;9.934;2023-04-08T00:14:55;23.13;;;13.80;;
4317;SDS011;2172;53.576;9.934;2023-04-08T00:17:22;22.70;;;14.47;;
4317;SDS011;2172;53.576;9.934;2023-04-08T00:19:50;26.40;;;14.63;;
4317;SDS011;2172;53.576;9.934;2023-04-08T00:22:17;22.03;;;14.93;;
4317;SDS011;2172;53.576;9.934;2023-04-08T00:24:45;24.37;;;14.10;;
4317;SDS011;2172;53.576;9.934;2023-04-08T00:27:14;23.10;;;13.80;;
4317;SDS011;2172;53.576;9.934;2023-04-08T00:29:41;22.27;;;13.47;;
4317;SDS011;2172;53.576;9.934;2023-04-08T00:32:09;19.60;;;13.50;;
4317;SDS011;2172;53.576;9.934;2023-04-08T00:34:36;23.37;;;13.60;;
4317;SDS011;2172;53.576;9.934;2023-04-08T00:37:04;22.57;;;14.57;;
4317;SDS011;2172;53.576;9.934;2023-04-08T00:39:31;23.60;;;14.97;;
4317;SDS011;2172;53.576;9.934;2023-04-08T00:41:59;22.23;;;13.77;;
4317;SDS011;2172;53.576;9.934;2023-04-08T00:44:29;24.37;;;15.37;;
4317;SDS011;2172;53.576;9.934;2023-04-08T00:46:56;21.90;;;15.67;;
4317;SDS011;2172;53.576;9.934;2023-04-08T00:49:24;26.67;;;15.13;;
4317;SDS011;2172;53.576;9.934;2023-04-08T00:51:52;23.40;;;14.40;;
4317;SDS011;2172;53.576;9.934;2023-04-08T00:54:20;18.97;;;12.77;;
4317;SDS011;2172;53.576;9.934;2023-04-08T00:56:47;22.10;;;14.67;;
4317;SDS011;2172;53.576;9.934;2023-04-08T00:59:16;23.17;;;16.07;;
4317;SDS011;2172;53.576;9.934;2023-04-08T01:01:46;21.30;;;13.50;;
4317;SDS011;2172;53.576;9.934;2023-04-08T01:04:21;26.63;;;15.17;;
4317;SDS011;2172;53.576;9.934;2023-04-08T01:06:56;19.13;;;13.70;;
4317;SDS011;2172;53.576;9.934;2023-04-08T01:09:27;20.97;;;13.70;;
4317;SDS011;2172;53.576;9.934;2023-04-08T01:11:58;20.37;;;13.00;;
4317;SDS011;2172;53.576;9.934;2023-04-08T01:14:26;19.13;;;12.73;;
4317;SDS011;2172;53.576;9.934;2023-04-08T01:16:56;19.30;;;12.60;;
4317;SDS011;2172;53.576;9.934;2023-04-08T01:19:26;18.20;;;11.07;;
4317;SDS011;2172;53.576;9.934;2023-04-08T01:21:56;18.83;;;12.50;;
4317;SDS011;2172;53.576;9.934;2023-04-08T01:24:28;19.07;;;10.90;;
4317;SDS011;2172;53.576;9.934;2023-04-08T01:27:00;19.70;;;11.00;;
4317;SDS011;2172;53.576;9.934;2023-04-08T01:29:28;18.60;;;12.10;;
4317;SDS011;2172;53.576;9.934;2023-04-08T01:31:57;16.50;;;12.00;;
4317;SDS011;2172;53.576;9.934;2023-04-08T01:34:26;17.00;;;12.43;;
4317;SDS011;2172;53.576;9.934;2023-04-08T01:36:55;18.50;;;12.90;;
4317;SDS011;2172;53.576;9.934;2023-04-08T01:39:23;20.63;;;12.87;;
4317;SDS011;2172;53.576;9.934;2023-04-08T01:41:52;20.37;;;12.77;;
4317;SDS011;2172;53.576;9.934;2023-04-08T01:44:23;19.50;;;12.80;;
4317;SDS011;2172;53.576;9.934;2023-04-08T01:46:52;22.10;;;13.30;;
4317;SDS011;2172;53.576;9.934;2023-04-08T01:49:21;23.47;;;14.07;;
4317;SDS011;2172;53.576;9.934;2023-04-08T01:51:50;19.40;;;13.00;;
4317;SDS011;2172;53.576;9.934;2023-04-08T01:54:18;17.00;;;12.13;;
4317;SDS011;2172;53.576;9.934;2023-04-08T01:56:46;19.23;;;13.77;;
4317;SDS011;2172;53.576;9.934;2023-04-08T01:59:14;23.13;;;14.97;;
4317;SDS011;2172;53.576;9.934;2023-04-08T02:01:44;19.53;;;13.33;;
4317;SDS011;2172;53.576;9.934;2023-04-08T02:04:12;18.07;;;13.00;;
4317;SDS011;2172;53.576;9.934;2023-04-08T02:06:41;19.30;;;14.20;;
4317;SDS011;2172;53.576;9.934;2023-04-08T02:09:09;19.53;;;13.53;;
4317;SDS011;2172;53.576;9.934;2023-04-08T02:11:36;20.00;;;12.80;;
4317;SDS011;2172;53.576;9.934;2023-04-08T02:14:04;19.23;;;13.30;;
4317;SDS011;2172;53.576;9.934;2023-04-08T02:16:33;17.87;;;12.10;;
4317;SDS011;2172;53.576;9.934;2023-04-08T02:19:09;20.27;;;12.00;;
4317;SDS011;2172;53.576;9.934;2023-04-08T02:21:42;20.63;;;12.00;;
4317;SDS011;2172;53.576;9.934;2023-04-08T02:24:12;21.33;;;12.50;;
4317;SDS011;2172;53.576;9.934;2023-04-08T02:26:41;19.53;;;11.70;;
4317;SDS011;2172;53.576;9.934;2023-04-08T02:29:11;19.07;;;13.00;;
4317;SDS011;2172;53.576;9.934;2023-04-08T02:31:39;17.93;;;13.10;;
4317;SDS011;2172;53.576;9.934;2023-04-08T02:34:09;17.30;;;12.40;;
4317;SDS011;2172;53.576;9.934;2023-04-08T02:36:37;22.30;;;14.43;;
4317;SDS011;2172;53.576;9.934;2023-04-08T02:39:05;18.20;;;13.67;;
4317;SDS011;2172;53.576;9.934;2023-04-08T02:41:33;22.40;;;13.63;;
4317;SDS011;2172;53.576;9.934;2023-04-08T02:44:01;18.53;;;13.43;;
4317;SDS011;2172;53.576;9.934;2023-04-08T02:46:28;20.27;;;14.10;;
4317;SDS011;2172;53.576;9.934;2023-04-08T02:48:56;21.33;;;13.60;;
4317;SDS011;2172;53.576;9.934;2023-04-08T02:51:25;18.37;;;12.87;;
4317;SDS011;2172;53.576;9.934;2023-04-08T02:53:53;16.70;;;12.07;;
4317;SDS011;2172;53.576;9.934;2023-04-08T02:56:20;17.90;;;12.90;;
4317;SDS011;2172;53.576;9.934;2023-04-08T02:58:48;19.33;;;13.73;;
4317;SDS011;2172;53.576;9.934;2023-04-08T03:01:16;23.03;;;14.20;;
4317;SDS011;2172;53.576;9.934;2023-04-08T03:03:43;19.13;;;14.13;;
4317;SDS011;2172;53.576;9.934;2023-04-08T03:06:11;19.97;;;14.07;;
4317;SDS011;2172;53.576;9.934;2023-04-08T03:08:40;20.70;;;14.20;;
4317;SDS011;2172;53.576;9.934;2023-04-08T03:11:07;20.83;;;14.30;;
4317;SDS011;2172;53.576;9.934;2023-04-08T03:13:35;22.37;;;14.30;;
4317;SDS011;2172;53.576;9.934;2023-04-08T03:16:02;19.70;;;15.63;;
4317;SDS011;2172;53.576;9.934;2023-04-08T03:18:30;18.57;;;13.10;;
4317;SDS011;2172;53.576;9.934;2023-04-08T03:20:58;21.23;;;13.27;;
4317;SDS011;2172;53.576;9.934;2023-04-08T03:23:27;27.53;;;16.00;;
4317;SDS011;2172;53.576;9.934;2023-04-08T03:25:56;22.13;;;15.87;;
4317;SDS011;2172;53.576;9.934;2023-04-08T03:28:24;24.60;;;15.50;;
4317;SDS011;2172;53.576;9.934;2023-04-08T03:30:51;22.83;;;15.73;;
4317;SDS011;2172;53.576;9.934;2023-04-08T03:33:19;22.07;;;14.63;;
4317;SDS011;2172;53.576;9.934;2023-04-08T03:35:46;22.80;;;14.80;;
4317;SDS011;2172;53.576;9.934;2023-04-08T03:38:14;25.03;;;16.30;;
4317;SDS011;2172;53.576;9.934;2023-04-08T03:40:41;28.50;;;16.93;;
4317;SDS011;2172;53.576;9.934;2023-04-08T03:43:10;22.73;;;15.53;;
4317;SDS011;2172;53.576;9.934;2023-04-08T03:45:38;27.13;;;15.93;;
4317;SDS011;2172;53.576;9.934;2023-04-08T03:48:06;27.07;;;15.97;;
4317;SDS011;2172;53.576;9.934;2023-04-08T03:50:33;25.07;;;16.40;;
4317;SDS011;2172;53.576;9.934;2023-04-08T03:53:01;27.00;;;16.77;;
4317;SDS011;2172;53.576;9.934;2023-04-08T03:55:29;30.10;;;19.40;;
4317;SDS011;2172;53.576;9.934;2023-04-08T03:57:56;30.30;;;17.23;;
4317;SDS011;2172;53.576;9.934;2023-04-08T04:00:25;28.37;;;17.20;;
4317;SDS011;2172;53.576;9.934;2023-04-08T04:02:53;28.43;;;18.67;;
4317;SDS011;2172;53.576;9.934;2023-04-08T04:05:20;30.40;;;17.90;;
4317;SDS011;2172;53.576;9.934;2023-04-08T04:07:48;30.43;;;19.83;;
4317;SDS011;2172;53.576;9.934;2023-04-08T04:10:15;28.20;;;18.63;;
4317;SDS011;2172;53.576;9.934;2023-04-08T04:12:43;32.90;;;20.83;;
4317;SDS011;2172;53.576;9.934;2023-04-08T04:15:11;30.30;;;19.57;;
4317;SDS011;2172;53.576;9.934;2023-04-08T04:17:40;30.80;;;18.07;;
4317;SDS011;2172;53.576;9.934;2023-04-08T04:20:08;33.33;;;20.37;;
4317;SDS011;2172;53.576;9.934;2023-04-08T04:22:36;35.67;;;18.63;;
4317;SDS011;2172;53.576;9.934;2023-04-08T04:25:04;29.53;;;19.53;;
4317;SDS011;2172;53.576;9.934;2023-04-08T04:27:32;33.70;;;19.37;;
4317;SDS011;2172;53.576;9.934;2023-04-08T04:30:01;37.37;;;20.93;;
4317;SDS011;2172;53.576;9.934;2023-04-08T04:32:28;32.77;;;19.60;;
4317;SDS011;2172;53.576;9.934;2023-04-08T04:34:57;32.63;;;19.00;;
4317;SDS011;2172;53.576;9.934;2023-04-08T04:37:25;36.13;;;21.30;;
4317;SDS011;2172;53.576;9.934;2023-04-08T04:39:52;34.20;;;20.10;;
4317;SDS011;2172;53.576;9.934;2023-04-08T04:42:20;34.27;;;19.57;;
4317;SDS011;2172;53.576;9.934;2023-04-08T04:44:47;35.00;;;20.70;;
4317;SDS011;2172;53.576;9.934;2023-04-08T04:47:15;34.93;;;19.57;;
4317;SDS011;2172;53.576;9.934;2023-04-08T04:49:43;35.90;;;20.80;;
4317;SDS011;2172;53.576;9.934;2023-04-08T04:52:12;38.97;;;20.97;;
4317;SDS011;2172;53.576;9.934;2023-04-08T04:54:39;33.63;;;20.37;;
4317;SDS011;2172;53.576;9.934;2023-04-08T04:57:07;35.70;;;20.90;;
4317;SDS011;2172;53.576;9.934;2023-04-08T04:59:35;38.00;;;21.97;;
4317;SDS011;2172;53.576;9.934;2023-04-08T05:02:03;40.57;;;21.50;;
4317;SDS011;2172;53.576;9.934;2023-04-08T05:04:30;38.93;;;21.03;;
4317;SDS011;2172;53.576;9.934;2023-04-08T05:06:58;39.50;;;18.73;;
4317;SDS011;2172;53.576;9.934;2023-04-08T05:09:27;34.77;;;20.63;;
4317;SDS011;2172;53.576;9.934;2023-04-08T05:11:55;33.30;;;18.37;;
4317;SDS011;2172;53.576;9.934;2023-04-08T05:14:23;40.87;;;21.07;;
4317;SDS011;2172;53.576;9.934;2023-04-08T05:16:51;33.53;;;19.60;;
4317;SDS011;2172;53.576;9.934;2023-04-08T05:19:18;42.17;;;20.90;;
4317;SDS011;2172;53.576;9.934;2023-04-08T05:21:46;36.70;;;19.43;;
4317;SDS011;2172;53.576;9.934;2023-04-08T05:24:13;34.60;;;20.67;;
4317;SDS011;2172;53.576;9.934;2023-04-08T05:26:42;39.33;;;20.57;;
4317;SDS011;2172;53.576;9.934;2023-04-08T05:29:09;33.00;;;20.10;;
4317;SDS011;2172;53.576;9.934;2023-04-08T05:31:37;33.07;;;19.03;;
4317;SDS011;2172;53.576;9.934;2023-04-08T05:34:04;37.87;;;20.13;;
4317;SDS011;2172;53.576;9.934;2023-04-08T05:36:32;35.90;;;20.00;;
4317;SDS011;2172;53.576;9.934;2023-04-08T05:38:59;35.13;;;20.13;;
4317;SDS011;2172;53.576;9.934;2023-04-08T05:41:27;40.00;;;23.10;;
4317;SDS011;2172;53.576;9.934;2023-04-08T05:43:56;34.23;;;20.50;;
4317;SDS011;2172;53.576;9.934;2023-04-08T05:46:23;37.90;;;20.23;;
4317;SDS011;2172;53.576;9.934;2023-04-08T05:48:50;32.87;;;18.93;;
4317;SDS011;2172;53.576;9.934;2023-04-08T05:51:18;33.10;;;18.00;;
4317;SDS011;2172;53.576;9.934;2023-04-08T05:53:45;33.27;;;17.53;;
4317;SDS011;2172;53.576;9.934;2023-04-08T05:56:13;34.83;;;20.47;;
4317;SDS011;2172;53.576;9.934;2023-04-08T05:58:41;33.57;;;16.87;;
4317;SDS011;2172;53.576;9.934;2023-04-08T06:01:10;42.93;;;18.80;;
4317;SDS011;2172;53.576;9.934;2023-04-08T06:03:37;36.50;;;18.80;;
4317;SDS011;2172;53.576;9.934;2023-04-08T06:06:08;34.07;;;20.53;;
4317;SDS011;2172;53.576;9.934;2023-04-08T06:08:36;41.53;;;22.90;;
4317;SDS011;2172;53.576;9.934;2023-04-08T06:11:04;36.97;;;19.93;;
4317;SDS011;2172;53.576;9.934;2023-04-08T06:13:31;36.73;;;18.23;;
4317;SDS011;2172;53.576;9.934;2023-04-08T06:16:04;38.47;;;20.33;;
4317;SDS011;2172;53.576;9.934;2023-04-08T06:18:37;33.63;;;20.37;;
4317;SDS011;2172;53.576;9.934;2023-04-08T06:21:05;33.07;;;20.27;;
4317;SDS011;2172;53.576;9.934;2023-04-08T06:23:33;31.67;;;19.13;;
4317;SDS011;2172;53.576;9.934;2023-04-08T06:26:00;31.20;;;18.93;;
4317;SDS011;2172;53.576;9.934;2023-04-08T06:28:29;38.13;;;21.37;;
4317;SDS011;2172;53.576;9.934;2023-04-08T06:30:56;46.03;;;23.70;;
4317;SDS011;2172;53.576;9.934;2023-04-08T06:33:25;38.00;;;23.00;;
4317;SDS011;2172;53.576;9.934;2023-04-08T06:36:00;38.20;;;20.53;;
4317;SDS011;2172;53.576;9.934;2023-04-08T06:38:28;37.57;;;20.13;;
4317;SDS011;2172;53.576;9.934;2023-04-08T06:40:56;41.50;;;23.40;;
4317;SDS011;2172;53.576;9.934;2023-04-08T06:43:27;39.90;;;20.37;;
4317;SDS011;2172;53.576;9.934;2023-04-08T06:45:54;35.40;;;20.50;;
4317;SDS011;2172;53.576;9.934;2023-04-08T06:48:22;35.77;;;20.50;;
4317;SDS011;2172;53.576;9.934;2023-04-08T06:50:54;39.73;;;21.50;;
4317;SDS011;2172;53.576;9.934;2023-04-08T06:53:22;36.90;;;20.10;;
4317;SDS011;2172;53.576;9.934;2023-04-08T06:55:50;38.23;;;20.33;;
4317;SDS011;2172;53.576;9.934;2023-04-08T06:58:17;41.63;;;21.10;;
4317;SDS011;2172;53.576;9.934;2023-04-08T07:00:45;40.03;;;19.93;;
4317;SDS011;2172;53.576;9.934;2023-04-08T07:03:12;39.40;;;21.20;;
4317;SDS011;2172;53.576;9.934;2023-04-08T07:05:40;39.47;;;20.60;;
4317;SDS011;2172;53.576;9.934;2023-04-08T07:08:09;38.80;;;21.87;;
4317;SDS011;2172;53.576;9.934;2023-04-08T07:10:36;37.77;;;21.67;;
4317;SDS011;2172;53.576;9.934;2023-04-08T07:13:04;36.80;;;21.13;;
4317;SDS011;2172;53.576;9.934;2023-04-08T07:15:31;38.27;;;20.90;;
4317;SDS011;2172;53.576;9.934;2023-04-08T07:17:59;42.47;;;21.17;;
4317;SDS011;2172;53.576;9.934;2023-04-08T07:20:27;36.70;;;19.40;;
4317;SDS011;2172;53.576;9.934;2023-04-08T07:22:54;33.67;;;18.50;;
4317;SDS011;2172;53.576;9.934;2023-04-08T07:25:23;34.30;;;19.03;;
4317;SDS011;2172;53.576;9.934;2023-04-08T07:27:51;40.13;;;20.17;;
4317;SDS011;2172;53.576;9.934;2023-04-08T07:30:18;42.00;;;20.70;;
4317;SDS011;2172;53.576;9.934;2023-04-08T07:32:46;26.57;;;17.60;;
4317;SDS011;2172;53.576;9.934;2023-04-08T07:35:13;31.83;;;19.50;;
4317;SDS011;2172;53.576;9.934;2023-04-08T07:37:48;30.27;;;16.80;;
4317;SDS011;2172;53.576;9.934;2023-04-08T07:40:17;29.27;;;18.40;;
4317;SDS011;2172;53.576;9.934;2023-04-08T07:42:46;33.37;;;19.10;;
4317;SDS011;2172;53.576;9.934;2023-04-08T07:45:13;28.37;;;18.07;;
4317;SDS011;2172;53.576;9.934;2023-04-08T07:47:41;30.20;;;17.33;;
4317;SDS011;2172;53.576;9.934;2023-04-08T07:50:09;34.27;;;17.60;;
4317;SDS011;2172;53.576;9.934;2023-04-08T07:52:37;27.17;;;18.50;;
4317;SDS011;2172;53.576;9.934;2023-04-08T07:55:05;25.93;;;16.07;;
4317;SDS011;2172;53.576;9.934;2023-04-08T07:57:33;27.17;;;16.30;;
4317;SDS011;2172;53.576;9.934;2023-04-08T08:00:02;28.20;;;17.90;;
4317;SDS011;2172;53.576;9.934;2023-04-08T08:02:38;25.10;;;17.10;;
4317;SDS011;2172;53.576;9.934;2023-04-08T08:05:06;25.13;;;16.10;;
4317;SDS011;2172;53.576;9.934;2023-04-08T08:07:34;20.93;;;14.63;;
4317;SDS011;2172;53.576;9.934;2023-04-08T08:10:01;23.73;;;15.30;;
4317;SDS011;2172;53.576;9.934;2023-04-08T08:12:29;26.73;;;15.50;;
4317;SDS011;2172;53.576;9.934;2023-04-08T08:14:58;22.93;;;14.37;;
4317;SDS011;2172;53.576;9.934;2023-04-08T08:17:26;25.27;;;15.70;;
4317;SDS011;2172;53.576;9.934;2023-04-08T08:19:55;23.93;;;14.27;;
4317;SDS011;2172;53.576;9.934;2023-04-08T08:22:22;25.57;;;15.57;;
4317;SDS011;2172;53.576;9.934;2023-04-08T08:24:53;22.23;;;14.87;;
4317;SDS011;2172;53.576;9.934;2023-04-08T08:27:22;25.40;;;15.40;;
4317;SDS011;2172;53.576;9.934;2023-04-08T08:29:49;26.40;;;16.57;;
4317;SDS011;2172;53.576;9.934;2023-04-08T08:32:17;32.40;;;17.60;;
4317;SDS011;2172;53.576;9.934;2023-04-08T08:34:46;32.73;;;17.97;;
4317;SDS011;2172;53.576;9.934;2023-04-08T08:37:13;27.90;;;18.73;;
4317;SDS011;2172;53.576;9.934;2023-04-08T08:39:41;25.97;;;15.23;;
4317;SDS011;2172;53.576;9.934;2023-04-08T08:42:17;26.37;;;16.63;;
4317;SDS011;2172;53.576;9.934;2023-04-08T08:44:46;26.10;;;17.13;;
4317;SDS011;2172;53.576;9.934;2023-04-08T08:47:14;34.00;;;17.73;;
4317;SDS011;2172;53.576;9.934;2023-04-08T08:49:41;25.30;;;17.40;;
4317;SDS011;2172;53.576;9.934;2023-04-08T08:52:11;29.13;;;17.57;;
4317;SDS011;2172;53.576;9.934;2023-04-08T08:54:42;28.90;;;17.77;;
4317;SDS011;2172;53.576;9.934;2023-04-08T08:57:15;26.77;;;17.20;;
4317;SDS011;2172;53.576;9.934;2023-04-08T08:59:44;29.80;;;17.33;;
4317;SDS011;2172;53.576;9.934;2023-04-08T09:02:22;26.80;;;17.20;;
4317;SDS011;2172;53.576;9.934;2023-04-08T09:04:55;27.37;;;16.07;;
4317;SDS011;2172;53.576;9.934;2023-04-08T09:07:25;28.63;;;15.80;;
4317;SDS011;2172;53.576;9.934;2023-04-08T09:09:53;27.30;;;16.87;;
4317;SDS011;2172;53.576;9.934;2023-04-08T09:12:22;24.27;;;15.93;;
4317;SDS011;2172;53.576;9.934;2023-04-08T09:15:01;27.50;;;16.47;;
4317;SDS011;2172;53.576;9.934;2023-04-08T09:17:32;25.43;;;16.27;;
4317;SDS011;2172;53.576;9.934;2023-04-08T09:20:05;25.50;;;16.50;;
4317;SDS011;2172;53.576;9.934;2023-04-08T09:25:23;31.87;;;18.13;;
4317;SDS011;2172;53.576;9.934;2023-04-08T09:27:51;21.57;;;16.40;;
4317;SDS011;2172;53.576;9.934;2023-04-08T09:30:20;29.27;;;17.17;;
4317;SDS011;2172;53.576;9.934;2023-04-08T09:32:49;23.33;;;16.97;;
4317;SDS011;2172;53.576;9.934;2023-04-08T09:35:18;28.63;;;18.00;;
4317;SDS011;2172;53.576;9.934;2023-04-08T09:37:47;25.10;;;17.53;;
4317;SDS011;2172;53.576;9.934;2023-04-08T09:40:16;27.60;;;18.40;;
4317;SDS011;2172;53.576;9.934;2023-04-08T09:42:44;25.60;;;16.27;;
4317;SDS011;2172;53.576;9.934;2023-04-08T09:45:15;32.30;;;16.80;;
4317;SDS011;2172;53.576;9.934;2023-04-08T09:47:43;27.43;;;17.20;;
4317;SDS011;2172;53.576;9.934;2023-04-08T09:50:22;31.63;;;16.40;;
4317;SDS011;2172;53.576;9.934;2023-04-08T09:52:53;31.97;;;18.20;;
4317;SDS011;2172;53.576;9.934;2023-04-08T09:55:28;24.70;;;16.07;;
4317;SDS011;2172;53.576;9.934;2023-04-08T09:57:58;25.13;;;15.93;;
4317;SDS011;2172;53.576;9.934;2023-04-08T10:00:28;25.60;;;17.00;;
4317;SDS011;2172;53.576;9.934;2023-04-08T10:03:01;26.87;;;16.63;;
4317;SDS011;2172;53.576;9.934;2023-04-08T10:05:32;27.40;;;16.90;;
4317;SDS011;2172;53.576;9.934;2023-04-08T10:08:04;24.63;;;17.07;;
4317;SDS011;2172;53.576;9.934;2023-04-08T10:10:34;30.00;;;19.00;;
4317;SDS011;2172;53.576;9.934;2023-04-08T10:13:03;28.43;;;18.33;;
4317;SDS011;2172;53.576;9.934;2023-04-08T10:15:32;25.93;;;16.53;;
4317;SDS011;2172;53.576;9.934;2023-04-08T10:20:58;29.80;;;18.30;;
4317;SDS011;2172;53.576;9.934;2023-04-08T10:26:31;25.00;;;17.80;;
4317;SDS011;2172;53.576;9.934;2023-04-08T10:31:58;29.73;;;18.90;;
4317;SDS011;2172;53.576;9.934;2023-04-08T10:34:27;28.70;;;19.00;;
4317;SDS011;2172;53.576;9.934;2023-04-08T10:36:55;27.47;;;18.30;;
4317;SDS011;2172;53.576;9.934;2023-04-08T10:39:26;24.97;;;18.33;;
4317;SDS011;2172;53.576;9.934;2023-04-08T10:41:55;32.10;;;19.80;;
4317;SDS011;2172;53.576;9.934;2023-04-08T10:44:23;28.13;;;19.57;;
4317;SDS011;2172;53.576;9.934;2023-04-08T10:46:51;24.53;;;17.37;;
4317;SDS011;2172;53.576;9.934;2023-04-08T10:49:19;19.70;;;15.77;;
4317;SDS011;2172;53.576;9.934;2023-04-08T10:51:47;22.10;;;14.63;;
4317;SDS011;2172;53.576;9.934;2023-04-08T10:54:15;24.70;;;16.43;;
4317;SDS011;2172;53.576;9.934;2023-04-08T10:56:44;24.97;;;16.70;;
4317;SDS011;2172;53.576;9.934;2023-04-08T10:59:14;22.80;;;16.30;;
4317;SDS011;2172;53.576;9.934;2023-04-08T11:01:44;22.53;;;16.60;;
4317;SDS011;2172;53.576;9.934;2023-04-08T11:04:12;30.43;;;18.30;;
4317;SDS011;2172;53.576;9.934;2023-04-08T11:06:43;28.20;;;18.27;;
4317;SDS011;2172;53.576;9.934;2023-04-08T11:09:11;26.53;;;18.43;;
4317;SDS011;2172;53.576;9.934;2023-04-08T11:11:40;35.90;;;21.80;;
4317;SDS011;2172;53.576;9.934;2023-04-08T11:14:08;27.77;;;19.17;;
4317;SDS011;2172;53.576;9.934;2023-04-08T11:16:37;28.00;;;18.63;;
4317;SDS011;2172;53.576;9.934;2023-04-08T11:19:05;33.43;;;18.77;;
4317;SDS011;2172;53.576;9.934;2023-04-08T11:21:36;30.50;;;20.60;;
4317;SDS011;2172;53.576;9.934;2023-04-08T11:24:10;29.90;;;19.13;;
4317;SDS011;2172;53.576;9.934;2023-04-08T11:26:39;25.07;;;19.13;;
4317;SDS011;2172;53.576;9.934;2023-04-08T11:29:08;24.73;;;17.80;;
4317;SDS011;2172;53.576;9.934;2023-04-08T11:31:40;34.40;;;20.40;;
4317;SDS011;2172;53.576;9.934;2023-04-08T11:34:08;33.53;;;19.70;;
4317;SDS011;2172;53.576;9.934;2023-04-08T11:36:38;32.30;;;20.43;;
4317;SDS011;2172;53.576;9.934;2023-04-08T11:39:06;28.07;;;19.27;;
4317;SDS011;2172;53.576;9.934;2023-04-08T11:41:36;30.33;;;18.93;;
4317;SDS011;2172;53.576;9.934;2023-04-08T11:44:04;32.87;;;20.13;;
4317;SDS011;2172;53.576;9.934;2023-04-08T11:46:32;39.17;;;21.53;;
4317;SDS011;2172;53.576;9.934;2023-04-08T11:49:02;30.07;;;20.50;;
4317;SDS011;2172;53.576;9.934;2023-04-08T11:51:31;33.77;;;21.07;;
4317;SDS011;2172;53.576;9.934;2023-04-08T11:53:59;34.83;;;22.20;;
4317;SDS011;2172;53.576;9.934;2023-04-08T11:56:29;35.93;;;20.83;;
4317;SDS011;2172;53.576;9.934;2023-04-08T11:58:57;35.43;;;23.13;;
4317;SDS011;2172;53.576;9.934;2023-04-08T12:01:25;31.73;;;19.80;;
4317;SDS011;2172;53.576;9.934;2023-04-08T12:03:56;36.20;;;22.23;;
4317;SDS011;2172;53.576;9.934;2023-04-08T12:06:26;33.03;;;21.97;;
4317;SDS011;2172;53.576;9.934;2023-04-08T12:08:56;35.20;;;22.10;;
4317;SDS011;2172;53.576;9.934;2023-04-08T12:11:23;35.53;;;22.67;;
4317;SDS011;2172;53.576;9.934;2023-04-08T12:13:51;31.90;;;20.87;;
4317;SDS011;2172;53.576;9.934;2023-04-08T12:16:19;38.90;;;22.00;;
4317;SDS011;2172;53.576;9.934;2023-04-08T12:18:46;34.77;;;21.67;;
4317;SDS011;2172;53.576;9.934;2023-04-08T12:21:14;31.87;;;22.37;;
4317;SDS011;2172;53.576;9.934;2023-04-08T12:23:43;30.93;;;21.30;;
4317;SDS011;2172;53.576;9.934;2023-04-08T12:26:10;32.17;;;20.73;;
4317;SDS011;2172;53.576;9.934;2023-04-08T12:28:38;30.03;;;22.40;;
4317;SDS011;2172;53.576;9.934;2023-04-08T12:31:06;32.20;;;21.83;;
4317;SDS011;2172;53.576;9.934;2023-04-08T12:33:33;30.97;;;22.53;;
4317;SDS011;2172;53.576;9.934;2023-04-08T12:36:01;33.10;;;22.80;;
4317;SDS011;2172;53.576;9.934;2023-04-08T12:38:29;37.00;;;25.27;;
4317;SDS011;2172;53.576;9.934;2023-04-08T12:40:59;39.33;;;23.47;;
4317;SDS011;2172;53.576;9.934;2023-04-08T12:43:26;35.13;;;22.60;;
4317;SDS011;2172;53.576;9.934;2023-04-08T12:45:54;31.03;;;21.43;;
4317;SDS011;2172;53.576;9.934;2023-04-08T12:48:21;32.00;;;20.83;;
4317;SDS011;2172;53.576;9.934;2023-04-08T12:50:49;30.67;;;21.27;;
4317;SDS011;2172;53.576;9.934;2023-04-08T12:53:17;31.67;;;20.00;;
4317;SDS011;2172;53.576;9.934;2023-04-08T12:55:45;30.87;;;19.70;;
4317;SDS011;2172;53.576;9.934;2023-04-08T12:58:14;30.80;;;19.43;;
4317;SDS011;2172;53.576;9.934;2023-04-08T13:00:42;29.60;;;21.03;;
4317;SDS011;2172;53.576;9.934;2023-04-08T13:03:11;33.93;;;21.10;;
4317;SDS011;2172;53.576;9.934;2023-04-08T13:05:41;29.47;;;20.97;;
4317;SDS011;2172;53.576;9.934;2023-04-08T13:08:09;33.10;;;21.83;;
4317;SDS011;2172;53.576;9.934;2023-04-08T13:10:37;31.40;;;21.10;;
4317;SDS011;2172;53.576;9.934;2023-04-08T13:13:04;31.13;;;20.67;;
4317;SDS011;2172;53.576;9.934;2023-04-08T13:15:33;28.93;;;20.37;;
4317;SDS011;2172;53.576;9.934;2023-04-08T13:18:01;37.57;;;22.50;;
4317;SDS011;2172;53.576;9.934;2023-04-08T13:20:28;31.30;;;21.83;;
4317;SDS011;2172;53.576;9.934;2023-04-08T13:22:56;28.93;;;20.30;;
4317;SDS011;2172;53.576;9.934;2023-04-08T13:25:24;24.33;;;19.10;;
4317;SDS011;2172;53.576;9.934;2023-04-08T13:27:52;28.63;;;20.40;;
4317;SDS011;2172;53.576;9.934;2023-04-08T13:30:19;29.90;;;19.73;;
4317;SDS011;2172;53.576;9.934;2023-04-08T13:32:48;29.80;;;20.40;;
4317;SDS011;2172;53.576;9.934;2023-04-08T13:35:16;33.03;;;21.10;;
4317;SDS011;2172;53.576;9.934;2023-04-08T13:37:43;29.87;;;20.07;;
4317;SDS011;2172;53.576;9.934;2023-04-08T13:40:11;32.20;;;20.77;;
4317;SDS011;2172;53.576;9.934;2023-04-08T13:42:39;32.40;;;19.33;;
4317;SDS011;2172;53.576;9.934;2023-04-08T13:45:07;27.73;;;19.30;;
4317;SDS011;2172;53.576;9.934;2023-04-08T13:47:35;29.80;;;20.00;;
4317;SDS011;2172;53.576;9.934;2023-04-08T13:50:05;33.30;;;21.73;;
4317;SDS011;2172;53.576;9.934;2023-04-08T13:52:33;28.20;;;20.70;;
4317;SDS011;2172;53.576;9.934;2023-04-08T13:55:00;31.30;;;20.80;;
4317;SDS011;2172;53.576;9.934;2023-04-08T13:57:28;34.97;;;20.50;;
4317;SDS011;2172;53.576;9.934;2023-04-08T13:59:56;31.50;;;19.57;;
4317;SDS011;2172;53.576;9.934;2023-04-08T14:02:23;29.17;;;22.40;;
4317;SDS011;2172;53.576;9.934;2023-04-08T14:04:51;33.13;;;23.33;;
4317;SDS011;2172;53.576;9.934;2023-04-08T14:07:20;30.70;;;21.30;;
4317;SDS011;2172;53.576;9.934;2023-04-08T14:09:47;30.97;;;21.20;;
4317;SDS011;2172;53.576;9.934;2023-04-08T14:12:15;33.00;;;22.17;;
4317;SDS011;2172;53.576;9.934;2023-04-08T14:14:42;29.20;;;22.07;;
4317;SDS011;2172;53.576;9.934;2023-04-08T14:17:09;33.43;;;21.67;;
4317;SDS011;2172;53.576;9.934;2023-04-08T14:19:37;31.50;;;24.63;;
4317;SDS011;2172;53.576;9.934;2023-04-08T14:22:06;28.70;;;22.10;;
4317;SDS011;2172;53.576;9.934;2023-04-08T14:24:34;36.47;;;23.87;;
4317;SDS011;2172;53.576;9.934;2023-04-08T14:27:02;32.03;;;22.57;;
4317;SDS011;2172;53.576;9.934;2023-04-08T14:29:30;31.30;;;23.00;;
4317;SDS011;2172;53.576;9.934;2023-04-08T14:31:57;31.27;;;22.50;;
4317;SDS011;2172;53.576;9.934;2023-04-08T14:34:25;35.93;;;25.47;;
4317;SDS011;2172;53.576;9.934;2023-04-08T14:36:52;33.70;;;23.40;;
4317;SDS011;2172;53.576;9.934;2023-04-08T14:39:20;33.00;;;25.50;;
4317;SDS011;2172;53.576;9.934;2023-04-08T14:41:49;35.07;;;24.90;;
4317;SDS011;2172;53.576;9.934;2023-04-08T14:44:16;35.83;;;23.93;;
4317;SDS011;2172;53.576;9.934;2023-04-08T14:46:44;32.67;;;23.03;;
4317;SDS011;2172;53.576;9.934;2023-04-08T14:49:12;34.80;;;24.77;;
4317;SDS011;2172;53.576;9.934;2023-04-08T14:51:39;29.97;;;22.30;;
4317;SDS011;2172;53.576;9.934;2023-04-08T14:54:07;30.93;;;22.53;;
4317;SDS011;2172;53.576;9.934;2023-04-08T14:56:34;33.80;;;25.57;;
4317;SDS011;2172;53.576;9.934;2023-04-08T14:59:03;34.53;;;24.83;;
4317;SDS011;2172;53.576;9.934;2023-04-08T15:01:31;41.97;;;26.40;;
4317;SDS011;2172;53.576;9.934;2023-04-08T15:03:59;37.50;;;27.57;;
4317;SDS011;2172;53.576;9.934;2023-04-08T15:06:27;39.70;;;27.10;;
4317;SDS011;2172;53.576;9.934;2023-04-08T15:08:55;35.57;;;25.80;;